Time;durP1;ratioP1;P1;durP2;ratioP2;P2;SDS_P1;SDS_P2;PMS_P1;PMS_P2;Temp;Humidity;BMP_temperature;BMP_pressure;BME280_temperature;BME280_humidity;BME280_pressure;Samples;Min_cycle;Max_cycle;Signal;HPM_P1;HPM_P2
2021/05/05 00:01:02;;;;;;;2.77;2.00;;;;;;;12.69;55.79;98236.09;4939807;29;20229;-82
2021/05/05 00:03:28;;;;;;;3.37;2.20;;;;;;;12.60;56.59;98243.06;4955193;28;20233;-86
2021/05/05 00:05:56;;;;;;;2.60;2.10;;;;;;;12.58;56.54;98250.59;4939568;29;20251;-84
2021/05/05 00:08:23;;;;;;;2.57;1.97;;;;;;;12.52;56.45;98251.66;4939501;29;20233;-82
2021/05/05 00:10:50;;;;;;;2.30;2.10;;;;;;;12.43;56.98;98239.81;4939610;29;20237;-81
2021/05/05 00:13:17;;;;;;;2.63;2.33;;;;;;;12.38;57.16;98233.63;4955501;28;20249;-82
2021/05/05 00:15:44;;;;;;;3.67;2.37;;;;;;;12.36;57.37;98244.66;4953497;28;20692;-81
2021/05/05 00:18:10;;;;;;;3.20;2.30;;;;;;;12.34;57.51;98244.09;4938814;29;20283;-82
2021/05/05 00:20:37;;;;;;;2.90;2.40;;;;;;;12.28;58.10;98240.56;4955028;28;20225;-81
2021/05/05 00:23:06;;;;;;;2.40;2.20;;;;;;;12.22;58.19;98238.97;4955508;28;20231;-84
2021/05/05 00:25:33;;;;;;;2.47;2.20;;;;;;;12.19;58.65;98241.34;4939385;29;20312;-81
2021/05/05 00:28:00;;;;;;;2.47;2.27;;;;;;;12.16;59.32;98247.25;4923909;29;20229;-81
2021/05/05 00:30:27;;;;;;;2.83;2.30;;;;;;;12.09;58.35;98239.44;4951848;28;20229;-81
2021/05/05 00:32:54;;;;;;;2.50;2.30;;;;;;;12.04;58.05;98241.31;4953106;28;20340;-80
2021/05/05 00:35:21;;;;;;;2.53;2.33;;;;;;;11.98;58.68;98234.31;4958524;28;20219;-81
2021/05/05 00:37:50;;;;;;;3.07;2.20;;;;;;;11.79;58.96;98221.34;4928272;29;20232;-81
2021/05/05 00:40:16;;;;;;;2.23;2.00;;;;;;;11.81;58.88;98227.22;4958073;29;20262;-80
2021/05/05 00:42:43;;;;;;;3.57;2.40;;;;;;;11.76;59.69;98221.03;4927243;29;20280;-81
2021/05/05 00:45:14;;;;;;;2.40;2.20;;;;;;;11.66;60.34;98221.78;4958792;28;20225;-80
2021/05/05 00:47:43;;;;;;;2.33;2.13;;;;;;;11.62;60.53;98219.88;4928914;29;20229;-80
2021/05/05 00:50:13;;;;;;;3.33;2.10;;;;;;;11.46;60.89;98222.47;4959490;29;20232;-80
2021/05/05 00:52:40;;;;;;;8.37;2.57;;;;;;;11.46;60.85;98224.34;4960371;29;20237;-80
2021/05/05 00:55:09;;;;;;;2.43;2.23;;;;;;;11.30;61.00;98217.25;4947707;29;20225;-80
2021/05/05 00:57:37;;;;;;;2.90;2.17;;;;;;;11.19;61.06;98215.59;4964710;28;20288;-80
2021/05/05 01:00:08;;;;;;;3.17;2.40;;;;;;;11.19;61.25;98226.31;4964317;28;20503;-80
2021/05/05 01:02:36;;;;;;;3.10;2.07;;;;;;;11.13;61.63;98214.72;4948355;29;20252;-80
2021/05/05 01:05:06;;;;;;;6.57;2.40;;;;;;;11.09;61.91;98226.22;4944893;29;20333;-80
2021/05/05 01:07:33;;;;;;;4.60;2.33;;;;;;;10.96;61.50;98214.84;4946127;29;20236;-80
2021/05/05 01:10:00;;;;;;;4.60;2.30;;;;;;;10.98;61.78;98223.47;4966326;29;20240;-80
2021/05/05 01:12:31;;;;;;;4.10;2.40;;;;;;;10.91;61.97;98219.38;4948994;29;20315;-81
2021/05/05 01:14:57;;;;;;;2.40;2.20;;;;;;;10.83;62.06;98212.59;4944713;29;20225;-80
2021/05/05 01:17:25;;;;;;;3.30;2.50;;;;;;;10.73;62.77;98204.47;4941877;29;20231;-81
2021/05/05 01:19:52;;;;;;;2.70;2.37;;;;;;;10.73;63.20;98209.84;4947025;29;20232;-81
2021/05/05 01:22:18;;;;;;;3.00;2.30;;;;;;;10.73;63.18;98206.38;4948889;28;20328;-80
2021/05/05 01:24:48;;;;;;;3.07;2.40;;;;;;;10.77;63.51;98218.19;4943094;29;20226;-80
2021/05/05 01:27:17;;;;;;;2.30;2.10;;;;;;;10.69;64.04;98219.44;4955879;28;20237;-81
2021/05/05 01:29:48;;;;;;;2.50;2.30;;;;;;;10.67;63.10;98205.53;4947755;29;20292;-80
2021/05/05 01:32:16;;;;;;;3.10;2.37;;;;;;;10.67;63.44;98210.88;4950697;29;20228;-80
2021/05/05 01:34:47;;;;;;;3.33;2.83;;;;;;;10.61;64.58;98211.88;4943298;29;20273;-81
2021/05/05 01:37:14;;;;;;;2.47;2.27;;;;;;;10.57;64.92;98211.59;4936403;29;20264;-81
2021/05/05 01:39:42;;;;;;;2.53;2.30;;;;;;;10.52;65.80;98211.53;4946568;29;20252;-80
2021/05/05 01:42:12;;;;;;;3.73;2.53;;;;;;;10.52;64.88;98221.44;4936789;29;20217;-80
2021/05/05 01:44:40;;;;;;;4.53;2.40;;;;;;;10.51;64.69;98219.81;4945885;29;20538;-81
2021/05/05 01:47:11;;;;;;;3.67;2.43;;;;;;;10.43;64.97;98215.72;4928101;29;20293;-81
2021/05/05 01:49:47;;;;;;;2.60;2.40;;;;;;;10.54;64.13;98228.16;4944688;29;20257;-80
2021/05/05 01:52:18;;;;;;;3.57;2.40;;;;;;;10.54;64.00;98233.50;4937252;28;20217;-80
2021/05/05 01:54:45;;;;;;;3.10;2.53;;;;;;;10.40;64.20;98215.44;4947340;29;20699;-80
2021/05/05 01:57:31;;;;;;;3.00;2.53;;;;;;;10.52;64.24;98238.31;4937309;29;20229;-80
2021/05/05 02:00:03;;;;;;;3.47;2.57;;;;;;;10.48;64.79;98237.22;4947378;29;20229;-83
2021/05/05 02:02:43;;;;;;;3.67;2.57;;;;;;;10.44;64.63;98233.44;4947939;29;20239;-81
2021/05/05 02:05:13;;;;;;;4.43;2.57;;;;;;;10.42;64.82;98232.84;4944754;29;20225;-80
2021/05/05 02:07:57;;;;;;;2.80;2.60;;;;;;;10.43;65.66;98250.53;4940007;29;20224;-81
2021/05/05 02:10:26;;;;;;;2.90;2.47;;;;;;;10.44;65.61;98251.34;4944142;28;20229;-81
2021/05/05 02:12:53;;;;;;;3.63;2.40;;;;;;;10.30;65.44;98240.22;4953681;29;20228;-81
2021/05/05 02:15:22;;;;;;;2.93;2.67;;;;;;;10.40;64.70;98237.66;4944740;29;20248;-80
2021/05/05 02:17:53;;;;;;;3.13;2.63;;;;;;;10.47;63.82;98243.63;4954090;28;20288;-81
2021/05/05 02:20:24;;;;;;;3.17;2.47;;;;;;;10.40;63.36;98224.28;4945019;28;20243;-81
2021/05/05 02:22:51;;;;;;;5.30;2.60;;;;;;;10.32;63.71;98226.56;4944193;29;20631;-82
2021/05/05 02:25:18;;;;;;;2.90;2.70;;;;;;;10.34;63.64;98219.94;4962463;28;20291;-80
2021/05/05 02:27:48;;;;;;;3.20;2.73;;;;;;;10.40;64.00;98228.81;4957405;29;20560;-81
2021/05/05 02:30:24;;;;;;;3.33;3.03;;;;;;;10.38;64.54;98217.53;4962633;29;20549;-81
2021/05/05 02:32:59;;;;;;;5.30;2.60;;;;;;;10.29;64.83;98201.13;4966374;28;20228;-81
2021/05/05 02:35:28;;;;;;;3.43;2.87;;;;;;;10.38;65.12;98223.72;5060613;23;20588;-81
2021/05/05 02:37:58;;;;;;;3.83;3.07;;;;;;;10.37;64.76;98221.28;5063355;28;20248;-81
2021/05/05 02:40:25;;;;;;;3.17;2.80;;;;;;;10.32;64.75;98199.81;5047116;28;20231;-81
2021/05/05 02:42:56;;;;;;;3.57;2.93;;;;;;;10.34;64.57;98205.72;5054645;28;20224;-81
2021/05/05 02:45:22;;;;;;;3.30;2.43;;;;;;;10.27;65.04;98197.88;5102103;28;20631;-80
2021/05/05 02:47:49;;;;;;;4.40;2.77;;;;;;;10.39;65.91;98216.50;5057336;28;20254;-81
2021/05/05 02:50:15;;;;;;;4.23;2.73;;;;;;;10.30;65.95;98197.41;5040184;28;20252;-81
2021/05/05 02:52:44;;;;;;;2.90;2.70;;;;;;;10.30;65.36;98192.03;5058722;28;20285;-80
2021/05/05 02:55:13;;;;;;;3.20;2.90;;;;;;;10.34;65.59;98201.19;5028349;28;20245;-81
2021/05/05 02:57:43;;;;;;;3.53;3.17;;;;;;;10.36;65.86;98203.63;5049986;28;20277;-80
2021/05/05 03:00:13;;;;;;;3.50;2.80;;;;;;;10.33;66.30;98215.63;5100491;28;20230;-81
2021/05/05 03:02:39;;;;;;;4.60;2.80;;;;;;;10.25;66.25;98208.06;5101146;28;20250;-80
2021/05/05 03:05:10;;;;;;;3.63;2.70;;;;;;;10.29;67.03;98213.72;5062648;28;20220;-81
2021/05/05 03:07:37;;;;;;;4.00;2.97;;;;;;;10.29;66.52;98190.44;5062801;28;20232;-81
2021/05/05 03:10:06;;;;;;;4.97;3.13;;;;;;;10.24;66.55;98194.91;5100377;28;20258;-81
2021/05/05 03:12:33;;;;;;;4.90;2.90;;;;;;;10.22;65.75;98191.69;5085126;28;20228;-80
2021/05/05 03:15:00;;;;;;;3.27;2.67;;;;;;;10.26;65.39;98188.25;5083140;28;20300;-83
2021/05/05 03:17:31;;;;;;;3.07;2.50;;;;;;;10.31;65.50;98203.56;5068379;23;20225;-80
2021/05/05 03:19:59;;;;;;;3.10;2.80;;;;;;;10.22;66.04;98191.69;5029686;28;20519;-82
2021/05/05 03:22:28;;;;;;;2.93;2.53;;;;;;;10.24;65.85;98185.00;5042639;28;20517;-82
2021/05/05 03:24:54;;;;;;;2.77;2.57;;;;;;;10.23;65.88;98186.06;5043120;28;20275;-81
2021/05/05 03:27:21;;;;;;;4.53;2.60;;;;;;;10.25;65.50;98194.66;5044872;28;20233;-80
2021/05/05 03:29:50;;;;;;;4.73;2.80;;;;;;;10.32;65.98;98200.63;5028452;28;20540;-81
2021/05/05 03:32:18;;;;;;;4.77;2.80;;;;;;;10.35;65.41;98196.66;5065858;28;20228;-81
2021/05/05 03:34:46;;;;;;;3.77;2.80;;;;;;;10.30;65.67;98188.56;5063094;28;20225;-80
2021/05/05 03:37:13;;;;;;;3.13;2.73;;;;;;;10.31;65.35;98185.59;5041729;28;20233;-81
2021/05/05 03:39:41;;;;;;;4.23;2.70;;;;;;;10.28;65.23;98180.78;5059171;28;20220;-81
2021/05/05 03:42:08;;;;;;;3.63;3.20;;;;;;;10.41;65.50;98196.41;5081781;28;20228;-81
2021/05/05 03:44:37;;;;;;;3.07;2.73;;;;;;;10.42;64.53;98181.16;5051616;28;20656;-82
2021/05/05 03:47:04;;;;;;;3.97;3.00;;;;;;;10.57;64.67;98197.38;5042774;28;20240;-81
2021/05/05 03:49:31;;;;;;;3.93;2.60;;;;;;;10.58;64.75;98183.75;5056321;28;20225;-81
2021/05/05 03:51:58;;;;;;;3.23;2.80;;;;;;;10.70;64.48;98194.28;5065798;28;20251;-81
2021/05/05 03:54:33;;;;;;;3.00;2.70;;;;;;;10.85;64.63;98194.41;5053716;28;20659;-81
2021/05/05 03:57:00;;;;;;;3.80;2.47;;;;;;;10.99;64.29;98198.28;5044226;28;20225;-80
2021/05/05 03:59:26;;;;;;;2.93;2.70;;;;;;;11.00;64.04;98183.81;5025663;28;20739;-82
2021/05/05 04:01:53;;;;;;;4.47;2.80;;;;;;;11.17;63.24;98191.69;5026958;28;20229;-81
2021/05/05 04:04:20;;;;;;;3.50;2.53;;;;;;;11.22;62.76;98188.25;5041907;28;20222;-80
2021/05/05 04:06:46;;;;;;;3.87;2.70;;;;;;;11.42;61.76;98191.06;5047973;23;20269;-81
2021/05/05 04:09:16;;;;;;;4.03;2.80;;;;;;;11.58;61.38;98202.66;5024699;28;20230;-81
2021/05/05 04:11:43;;;;;;;3.10;2.60;;;;;;;11.57;60.14;98183.06;5024774;28;20273;-82
2021/05/05 04:14:13;;;;;;;2.80;2.60;;;;;;;11.68;60.01;98183.94;5002835;28;20223;-80
2021/05/05 04:16:57;;;;;;;4.33;2.80;;;;;;;11.88;60.48;98200.16;5007593;28;20564;-81
2021/05/05 04:19:42;;;;;;;3.30;2.50;;;;;;;11.91;59.83;98189.72;5043867;23;20228;-81
2021/05/05 04:22:28;;;;;;;3.07;2.33;;;;;;;12.03;59.47;98192.19;5068548;28;20216;-81
2021/05/05 04:25:13;;;;;;;3.70;2.43;;;;;;;12.20;59.06;98198.13;5087229;22;20228;-80
2021/05/05 04:27:42;;;;;;;8.77;2.83;;;;;;;12.27;60.15;98200.56;5015013;23;949395;-80
2021/05/05 04:30:19;;;;;;;4.37;2.57;;;;;;;12.31;60.52;98190.91;5058304;28;20242;-80
2021/05/05 04:32:48;;;;;;;8.10;4.20;;;;;;;12.33;58.09;98194.13;5106724;28;20228;-81
2021/05/05 04:35:15;;;;;;;7.80;4.03;;;;;;;12.37;57.89;98173.72;5105800;28;20220;-80
2021/05/05 04:37:41;;;;;;;5.90;3.70;;;;;;;12.54;58.16;98184.25;5071454;28;20232;-80
2021/05/05 04:40:11;;;;;;;6.53;3.03;;;;;;;12.67;57.09;98183.72;5074345;28;20291;-80
2021/05/05 04:42:38;;;;;;;3.53;2.83;;;;;;;12.75;55.70;98173.22;5087278;28;20242;-80
2021/05/05 04:45:07;;;;;;;3.13;2.63;;;;;;;12.86;55.36;98168.66;5104641;28;20223;-81
2021/05/05 04:47:36;;;;;;;5.23;2.77;;;;;;;13.11;56.40;98181.31;5090051;28;20228;-81
2021/05/05 04:50:18;;;;;;;3.40;2.80;;;;;;;13.37;56.13;98188.25;5088687;28;20661;-81
2021/05/05 04:52:45;;;;;;;3.60;2.77;;;;;;;13.60;54.83;98176.09;5069140;28;20219;-81
2021/05/05 04:55:13;;;;;;;3.30;2.80;;;;;;;13.76;54.20;98161.53;5073380;28;20235;-80
2021/05/05 04:57:39;;;;;;;4.13;2.50;;;;;;;13.92;53.95;98154.97;5043736;28;20249;-83
2021/05/05 05:00:07;;;;;;;6.47;2.90;;;;;;;14.24;53.57;98168.00;5043180;28;20255;-87
2021/05/05 05:02:33;;;;;;;5.40;2.77;;;;;;;14.33;53.29;98146.66;5043511;28;20229;-81
2021/05/05 05:05:01;;;;;;;3.57;2.97;;;;;;;14.56;51.56;98158.69;5060068;28;20217;-82
2021/05/05 05:07:27;;;;;;;5.13;2.43;;;;;;;14.72;50.05;98147.50;5043709;28;20295;-86
2021/05/05 05:09:54;;;;;;;6.07;2.80;;;;;;;15.05;48.75;98153.13;5076243;28;20229;-86
2021/05/05 05:12:20;;;;;;;2.80;2.47;;;;;;;15.27;47.63;98153.47;5059511;28;22624;-85
2021/05/05 05:14:46;;;;;;;3.73;2.30;;;;;;;15.43;47.25;98157.63;5059760;28;20217;-83
2021/05/05 05:17:12;;;;;;;5.03;2.50;;;;;;;15.41;46.92;98133.59;5043172;28;20247;-82
2021/05/05 05:19:39;;;;;;;4.67;2.50;;;;;;;15.55;46.62;98144.53;5059603;28;20227;-79
2021/05/05 05:22:06;;;;;;;5.07;2.70;;;;;;;15.57;46.58;98147.78;5059207;28;20230;-83
2021/05/05 05:24:32;;;;;;;3.00;2.70;;;;;;;15.70;46.58;98141.69;5059568;28;20226;-79
2021/05/05 05:26:58;;;;;;;3.90;2.50;;;;;;;15.62;47.61;98153.13;5059157;28;20223;-78
2021/05/05 05:29:25;;;;;;;3.03;2.50;;;;;;;15.71;47.20;98154.09;5059666;28;20233;-79
2021/05/05 05:31:52;;;;;;;3.93;2.30;;;;;;;15.76;47.06;98145.94;5060205;28;20228;-78
2021/05/05 05:34:18;;;;;;;10.60;3.20;;;;;;;15.91;45.86;98154.94;5062388;28;20230;-79
2021/05/05 05:36:45;;;;;;;5.63;2.77;;;;;;;16.00;46.07;98143.19;5047249;28;20237;-79
2021/05/05 05:39:11;;;;;;;7.80;2.80;;;;;;;16.09;46.47;98143.34;5042986;28;20262;-79
2021/05/05 05:41:38;;;;;;;8.30;3.17;;;;;;;16.14;46.81;98141.34;5025864;28;20231;-78
2021/05/05 05:44:05;;;;;;;9.53;3.17;;;;;;;16.05;47.14;98143.09;5042378;28;20235;-80
2021/05/05 05:46:31;;;;;;;10.20;3.27;;;;;;;16.05;47.34;98145.81;5058994;28;20235;-79
2021/05/05 05:48:58;;;;;;;11.57;3.70;;;;;;;16.22;46.88;98142.63;5058982;28;20242;-80
2021/05/05 05:51:24;;;;;;;8.40;3.30;;;;;;;16.41;46.70;98143.44;5068569;28;20227;-81
2021/05/05 05:53:51;;;;;;;8.30;3.10;;;;;;;16.52;45.36;98144.06;5059115;28;20688;-82
2021/05/05 05:56:17;;;;;;;8.60;3.20;;;;;;;16.63;45.36;98137.44;5058739;28;20221;-82
2021/05/05 05:58:43;;;;;;;5.50;3.10;;;;;;;16.78;45.38;98131.78;5042590;28;20227;-88
2021/05/05 06:01:10;;;;;;;6.87;2.70;;;;;;;16.91;44.71;98135.63;5033537;28;20223;-85
2021/05/05 06:03:37;;;;;;;7.73;3.00;;;;;;;17.01;44.45;98128.16;5062256;28;20227;-79
2021/05/05 06:06:03;;;;;;;5.57;3.07;;;;;;;17.12;44.38;98136.91;5072901;28;20223;-80
2021/05/05 06:08:30;;;;;;;5.83;2.60;;;;;;;17.30;43.44;98138.72;5042607;28;20278;-83
2021/05/05 06:10:58;;;;;;;7.97;2.63;;;;;;;17.54;42.90;98143.97;5046409;28;20228;-84
2021/05/05 06:13:25;;;;;;;7.13;2.93;;;;;;;17.58;41.77;98134.13;5062420;28;20235;-84
2021/05/05 06:15:52;;;;;;;3.43;2.40;;;;;;;17.64;41.73;98145.72;5078823;28;20248;-85
2021/05/05 06:18:19;;;;;;;4.10;2.23;;;;;;;17.80;41.30;98136.16;5096411;28;20228;-84
2021/05/05 06:20:46;;;;;;;4.53;2.50;;;;;;;18.16;40.59;98126.16;5061908;28;20242;-85
2021/05/05 06:23:12;;;;;;;3.73;2.50;;;;;;;18.22;41.18;98127.66;5096609;28;20236;-85
2021/05/05 06:25:39;;;;;;;2.53;2.30;;;;;;;18.28;40.83;98109.38;5077964;28;20224;-83
2021/05/05 06:28:05;;;;;;;4.30;2.23;;;;;;;18.63;40.20;98113.97;5058209;28;20232;-85
2021/05/05 06:30:31;;;;;;;3.93;2.30;;;;;;;18.70;38.89;98119.78;5055611;28;20224;-85
2021/05/05 06:32:58;;;;;;;4.30;2.80;;;;;;;18.67;39.18;98125.81;5045591;28;20287;-85
2021/05/05 06:35:24;;;;;;;3.93;2.57;;;;;;;18.51;39.77;98123.75;5049633;28;20233;-86
2021/05/05 06:37:51;;;;;;;5.57;2.60;;;;;;;18.54;39.82;98112.31;5071144;28;20228;-81
2021/05/05 06:40:19;;;;;;;4.60;2.70;;;;;;;18.59;39.90;98131.97;5054004;28;20267;-82
2021/05/05 06:42:46;;;;;;;5.20;2.67;;;;;;;18.72;39.62;98119.47;5084700;28;20241;-84
2021/05/05 06:45:13;;;;;;;4.60;2.60;;;;;;;18.70;40.54;98121.69;5061431;28;20541;-82
2021/05/05 06:47:39;;;;;;;4.60;2.50;;;;;;;18.78;40.17;98104.66;5030727;28;20561;-85
2021/05/05 06:50:08;;;;;;;4.67;2.80;;;;;;;18.95;40.61;98117.53;5037639;28;20229;-83
2021/05/05 06:52:34;;;;;;;6.40;2.73;;;;;;;19.07;40.34;98109.63;5061232;28;20231;-84
2021/05/05 06:55:01;;;;;;;5.60;2.70;;;;;;;19.24;39.83;98104.28;5077720;28;20284;-85
2021/05/05 06:57:28;;;;;;;3.17;2.57;;;;;;;19.60;39.37;98102.22;5084167;28;20285;-85
2021/05/05 06:59:54;;;;;;;7.43;2.80;;;;;;;19.83;38.73;98091.25;5057989;28;20645;-86
2021/05/05 07:02:21;;;;;;;6.43;2.70;;;;;;;19.94;38.12;98103.41;5049557;28;20238;-84
2021/05/05 07:04:49;;;;;;;4.60;2.87;;;;;;;20.14;37.41;98092.75;5050291;28;20311;-83
2021/05/05 07:07:15;;;;;;;7.73;2.97;;;;;;;20.37;36.77;98106.22;5041102;28;20643;-82
2021/05/05 07:09:42;;;;;;;5.03;2.60;;;;;;;20.54;37.13;98090.69;5041270;28;20233;-85
2021/05/05 07:12:09;;;;;;;4.90;2.63;;;;;;;20.71;36.54;98080.91;5046278;28;20301;-85
2021/05/05 07:14:35;;;;;;;4.47;2.80;;;;;;;21.00;36.89;98091.88;5044665;28;20298;-85
2021/05/05 07:17:02;;;;;;;9.63;3.00;;;;;;;21.24;35.66;98085.91;5073099;28;20225;-85
2021/05/05 07:19:28;;;;;;;5.80;3.00;;;;;;;21.27;35.62;98086.09;5057109;28;20311;-86
2021/05/05 07:21:55;;;;;;;3.83;2.90;;;;;;;21.44;34.78;98086.00;5075043;28;20279;-85
2021/05/05 07:24:21;;;;;;;3.90;2.77;;;;;;;21.38;34.50;98078.31;5056722;28;20291;-83
2021/05/05 07:26:47;;;;;;;4.47;3.10;;;;;;;21.50;35.78;98081.16;5073882;28;20259;-85
2021/05/05 07:29:15;;;;;;;4.67;2.93;;;;;;;21.49;35.03;98071.41;5057014;28;20225;-84
2021/05/05 07:31:41;;;;;;;6.43;3.30;;;;;;;21.58;34.79;98074.88;5057476;28;20270;-85
2021/05/05 07:34:10;;;;;;;5.67;3.13;;;;;;;21.68;34.40;98068.25;5053293;28;20238;-86
2021/05/05 07:36:36;;;;;;;7.60;3.17;;;;;;;21.59;34.70;98040.25;5021141;28;20281;-87
2021/05/05 07:47:04;;;;;;;7.87;3.00;;;;;;;21.75;33.55;98058.41;5074603;28;20226;-86
2021/05/05 07:49:38;;;;;;;5.23;2.80;;;;;;;21.74;33.47;98053.31;5053453;28;20577;-84
2021/05/05 07:52:04;;;;;;;6.13;3.10;;;;;;;22.05;33.97;98045.59;5053141;28;20220;-87
2021/05/05 07:54:30;;;;;;;4.33;2.80;;;;;;;21.66;35.27;98040.50;5076109;28;20218;-85
2021/05/05 07:56:56;;;;;;;5.83;2.80;;;;;;;21.44;34.83;98047.06;5076768;28;20236;-86
2021/05/05 07:59:21;;;;;;;4.63;3.10;;;;;;;21.37;35.13;98033.94;5042020;28;20687;-87
2021/05/05 08:01:48;;;;;;;7.93;3.20;;;;;;;21.39;35.36;98036.34;5073707;28;20643;-86
2021/05/05 08:04:14;;;;;;;5.27;3.03;;;;;;;21.29;35.44;98014.91;5059267;28;20314;-83
2021/05/05 08:06:41;;;;;;;3.40;2.97;;;;;;;21.22;35.78;98026.34;5044338;28;20230;-87
2021/05/05 08:09:07;;;;;;;4.67;2.83;;;;;;;21.19;35.61;98026.16;5059005;28;20234;-85
2021/05/05 08:11:34;;;;;;;5.47;3.10;;;;;;;21.13;36.20;98017.41;5058837;28;20231;-87
2021/05/05 08:14:00;;;;;;;5.57;2.97;;;;;;;21.31;36.02;98027.09;5043855;28;20226;-82
2021/05/05 08:16:27;;;;;;;4.23;2.70;;;;;;;21.38;35.51;98018.41;5060805;28;20279;-87
2021/05/05 08:18:53;;;;;;;7.13;3.00;;;;;;;21.29;35.57;98004.81;5060818;28;20238;-87
2021/05/05 08:21:22;;;;;;;4.60;3.10;;;;;;;21.24;35.59;98012.38;5054085;28;20235;-87
2021/05/05 08:23:48;;;;;;;4.20;3.00;;;;;;;21.30;35.13;98009.16;5061325;28;20229;-85
2021/05/05 08:26:15;;;;;;;3.30;2.80;;;;;;;21.34;35.59;98003.84;5076986;28;20242;-83
2021/05/05 08:28:41;;;;;;;5.57;2.97;;;;;;;21.35;35.51;98006.25;5068226;28;20532;-87
2021/05/05 08:31:12;;;;;;;7.13;2.97;;;;;;;21.35;35.28;98006.25;5064858;28;20309;-87
2021/05/05 08:33:39;;;;;;;3.30;2.90;;;;;;;21.56;35.34;97986.41;5060012;28;20271;-85
2021/05/05 08:36:05;;;;;;;4.17;2.77;;;;;;;21.70;35.81;97990.47;5076300;28;20647;-85
2021/05/05 08:38:32;;;;;;;3.73;3.07;;;;;;;22.12;34.76;97982.31;5065974;28;20218;-87
2021/05/05 08:40:58;;;;;;;3.43;2.83;;;;;;;22.55;34.15;97977.22;5051765;28;20692;-87
2021/05/05 08:43:25;;;;;;;4.87;2.77;;;;;;;22.79;34.02;97965.59;5047977;28;20221;-84
2021/05/05 08:45:58;;;;;;;4.03;2.87;;;;;;;23.25;32.69;97965.16;5066765;28;20220;-85
2021/05/05 08:48:26;;;;;;;5.53;2.93;;;;;;;23.50;32.20;97948.78;5060180;28;20224;-86
2021/05/05 08:50:52;;;;;;;2.87;2.40;;;;;;;24.01;31.05;97963.56;5058423;28;20239;-83
2021/05/05 08:53:19;;;;;;;2.60;2.40;;;;;;;24.23;30.02;97956.78;5057967;28;20547;-85
2021/05/05 08:55:45;;;;;;;6.00;2.70;;;;;;;24.40;29.66;97960.00;5076773;28;20241;-86
2021/05/05 08:58:11;;;;;;;5.28;2.70;;;;;;;24.42;29.27;97946.75;5074704;28;20512;-86
2021/05/05 09:00:38;;;;;;;3.55;2.53;;;;;;;24.40;29.22;97949.03;5023286;28;20637;-87
2021/05/05 09:03:07;;;;;;;3.58;2.38;;;;;;;24.72;29.74;97943.63;5023619;28;20586;-84
2021/05/05 09:06:00;;;;;;;5.53;2.90;;;;;;;24.78;29.06;97932.03;5044270;28;20287;-84
2021/05/05 09:08:30;;;;;;;6.35;2.90;;;;;;;25.06;28.99;97933.91;5059784;28;20225;-82
2021/05/05 09:11:05;;;;;;;3.15;2.83;;;;;;;25.01;29.20;97932.22;5059019;28;20229;-84
2021/05/05 09:13:57;;;;;;;3.05;2.75;;;;;;;25.19;28.90;97929.94;5076323;28;20234;-85
2021/05/05 09:16:30;;;;;;;5.40;2.78;;;;;;;25.22;28.37;97921.00;5058304;28;20233;-86
2021/05/05 09:19:10;;;;;;;4.72;2.65;;;;;;;25.17;28.91;97927.53;5030232;28;20248;-86
2021/05/05 09:21:39;;;;;;;6.22;2.90;;;;;;;25.11;28.05;97930.91;5062967;28;20227;-85
2021/05/05 09:24:30;;;;;;;5.07;2.50;;;;;;;24.90;28.35;97915.56;5075212;28;20221;-86
2021/05/05 09:27:05;;;;;;;4.65;2.70;;;;;;;24.75;29.02;97915.53;5059063;28;20320;-84
2021/05/05 09:29:48;;;;;;;4.95;2.55;;;;;;;25.03;28.38;97924.47;5072414;28;20213;-84
2021/05/05 09:32:16;;;;;;;4.90;2.80;;;;;;;25.01;28.80;97925.97;5058548;28;20231;-84
2021/05/05 09:34:56;;;;;;;5.35;2.70;;;;;;;24.93;29.49;97925.00;5059460;28;20220;-85
2021/05/05 09:37:24;;;;;;;6.00;2.30;;;;;;;24.80;28.08;97918.00;5042839;28;20239;-85
2021/05/05 09:40:07;;;;;;;4.60;2.30;;;;;;;24.72;29.29;97925.25;5050588;28;20228;-84
2021/05/05 09:42:35;;;;;;;4.57;2.53;;;;;;;24.59;29.22;97909.25;5062403;28;20572;-83
2021/05/05 09:45:01;;;;;;;4.82;2.50;;;;;;;24.54;29.97;97921.28;5070107;28;20230;-84
2021/05/05 09:47:55;;;;;;;6.40;2.75;;;;;;;24.56;29.93;97933.44;5058983;28;20225;-85
2021/05/05 09:50:25;;;;;;;4.00;2.55;;;;;;;24.62;29.79;97931.25;5053339;28;20236;-85
2021/05/05 09:53:17;;;;;;;3.10;2.80;;;;;;;24.55;28.95;97917.38;5075378;28;20224;-85
2021/05/05 09:56:07;;;;;;;4.90;2.78;;;;;;;24.29;30.30;97937.03;5076261;28;20251;-85
2021/05/05 09:58:39;;;;;;;5.57;2.83;;;;;;;24.16;29.99;97921.00;5066533;28;20285;-83
2021/05/05 10:01:05;;;;;;;2.80;2.50;;;;;;;23.92;31.64;97921.88;5045550;28;20228;-86
2021/05/05 10:03:55;;;;;;;4.15;2.70;;;;;;;23.35;31.95;97922.91;5056309;28;20226;-83
2021/05/05 10:06:32;;;;;;;2.85;2.55;;;;;;;23.36;31.24;97918.25;5058399;28;20246;-84
2021/05/05 10:09:10;;;;;;;4.28;2.58;;;;;;;23.35;31.10;97909.25;5038623;28;20217;-85
2021/05/05 10:11:39;;;;;;;6.28;2.47;;;;;;;23.41;31.48;97913.34;5043480;28;20227;-86
2021/05/05 10:14:09;;;;;;;4.32;2.92;;;;;;;23.88;30.84;97921.00;5041345;28;20231;-84
2021/05/05 10:16:40;;;;;;;3.90;2.80;;;;;;;24.41;31.20;97927.94;5058843;28;20561;-85
2021/05/05 10:19:12;;;;;;;6.22;2.65;;;;;;;24.83;29.37;97941.94;5076459;28;20229;-86
2021/05/05 10:21:42;;;;;;;4.38;2.80;;;;;;;23.07;31.55;97933.75;5058274;28;20234;-86
2021/05/05 10:24:10;;;;;;;5.73;2.50;;;;;;;23.65;31.06;97948.06;5074637;28;20359;-86
2021/05/05 10:26:36;;;;;;;3.20;2.90;;;;;;;23.88;29.38;97942.88;5041739;28;20632;-85
2021/05/05 10:29:04;;;;;;;3.70;2.55;;;;;;;23.90;30.60;97962.44;5041533;28;20541;-83
2021/05/05 10:31:33;;;;;;;4.97;2.63;;;;;;;23.64;30.82;97977.34;5075739;28;20311;-82
2021/05/05 10:34:01;;;;;;;7.15;3.10;;;;;;;23.28;32.64;97972.66;5074891;28;20290;-84
2021/05/05 10:36:27;;;;;;;4.85;3.15;;;;;;;22.78;34.04;97983.09;5074192;28;20310;-82
2021/05/05 10:38:53;;;;;;;8.23;3.40;;;;;;;22.12;34.44;97980.38;5075578;28;20657;-82
2021/05/05 10:41:21;;;;;;;7.17;2.97;;;;;;;22.01;34.94;97998.28;5057851;28;20661;-85
2021/05/05 10:43:57;;;;;;;4.30;3.20;;;;;;;21.42;35.17;98000.25;5058422;28;20569;-82
2021/05/05 10:46:32;;;;;;;3.60;2.87;;;;;;;21.16;36.15;98002.31;5041242;28;20226;-85
2021/05/05 10:49:15;;;;;;;4.57;3.10;;;;;;;20.92;37.80;98005.59;5058035;28;20229;-84
2021/05/05 10:51:45;;;;;;;8.53;3.60;;;;;;;20.69;39.10;98018.63;5074326;28;20226;-82
2021/05/05 10:54:12;;;;;;;4.03;3.63;;;;;;;20.21;39.14;98011.47;5057356;28;20225;-84
2021/05/05 10:56:39;;;;;;;4.90;3.60;;;;;;;19.94;40.12;98014.53;5041185;28;20233;-84
2021/05/05 10:59:10;;;;;;;5.83;3.77;;;;;;;19.78;40.63;98037.88;5074326;28;20254;-84
2021/05/05 11:01:48;;;;;;;6.20;3.80;;;;;;;19.31;40.92;98034.84;5058181;28;20231;-79
2021/05/05 11:04:15;;;;;;;5.40;3.97;;;;;;;19.41;40.81;98049.25;5041075;28;20267;-82
2021/05/05 11:06:49;;;;;;;4.83;3.80;;;;;;;19.18;40.80;98054.75;5041030;28;20663;-80
2021/05/05 11:09:16;;;;;;;4.77;3.57;;;;;;;18.86;42.01;98069.44;5041397;28;20231;-81
2021/05/05 11:11:45;;;;;;;5.00;3.50;;;;;;;18.85;43.38;98083.31;5045207;28;20257;-81
2021/05/05 11:14:23;;;;;;;5.47;3.10;;;;;;;18.70;44.37;98092.66;5037335;28;20666;-84
2021/05/05 11:16:59;;;;;;;4.73;3.60;;;;;;;18.40;45.91;98105.00;5066043;28;20612;-81
2021/05/05 11:19:44;;;;;;;4.43;3.20;;;;;;;18.17;48.53;98110.69;5057179;28;20311;-77
2021/05/05 11:22:19;;;;;;;5.47;3.50;;;;;;;18.03;48.12;98122.38;5036854;28;20523;-83
2021/05/05 11:24:46;;;;;;;3.90;3.60;;;;;;;18.01;48.14;98110.22;5037266;28;20238;-83
2021/05/05 11:27:14;;;;;;;3.87;3.17;;;;;;;18.35;49.52;98115.97;5034019;28;20224;-86
2021/05/05 11:29:51;;;;;;;5.50;3.37;;;;;;;18.79;49.85;98115.22;5057737;28;20237;-82
2021/05/05 11:32:24;;;;;;;6.23;3.77;;;;;;;18.98;46.84;98125.06;5073553;28;20232;-85
2021/05/05 11:34:55;;;;;;;3.70;3.40;;;;;;;18.65;49.33;98133.47;5074826;28;20701;-81
2021/05/05 11:37:26;;;;;;;8.67;3.13;;;;;;;18.24;51.42;98141.72;5073414;28;20316;-88
2021/05/05 11:40:00;;;;;;;14.50;3.23;;;;;;;17.53;100.00;98183.78;5076102;28;20567;-86
2021/05/05 11:42:36;;;;;;;5.37;2.50;;;;;;;17.84;61.81;98172.38;5047144;28;20227;-80
2021/05/05 11:45:22;;;;;;;5.93;2.30;;;;;;;17.39;59.80;98172.13;5060554;28;20227;-81
2021/05/05 11:47:51;;;;;;;4.37;2.27;;;;;;;16.44;61.15;98161.75;5087015;28;20227;-79
2021/05/05 11:50:22;;;;;;;4.37;2.33;;;;;;;16.42;62.35;98187.47;5067882;28;20274;-79
2021/05/05 11:53:12;;;;;;;3.27;2.30;;;;;;;15.92;62.50;98186.22;5083970;28;20225;-80